Time;durP1;ratioP1;P1;durP2;ratioP2;P2;SDS_P1;SDS_P2;PMS_P1;PMS_P2;Temp;Humidity;BMP_temperature;BMP_pressure;BME280_temperature;BME280_humidity;BME280_pressure;Samples;Min_cycle;Max_cycle;Signal;HPM_P1;HPM_P2
2023/12/19 00:01:33;;;;;;;9.37;7.70;;;7.00;99.90;;;;;;5068465;28;20176;-76
2023/12/19 00:03:59;;;;;;;6.97;5.80;;;7.00;99.90;;;;;;5037367;28;20177;-76
2023/12/19 00:06:25;;;;;;;6.13;5.20;;;7.00;99.90;;;;;;5065326;28;20200;-77
2023/12/19 00:08:50;;;;;;;7.30;5.20;;;7.00;99.90;;;;;;5060394;28;20181;-76
2023/12/19 00:11:16;;;;;;;7.40;6.00;;;7.10;99.90;;;;;;5046352;28;20606;-76
2023/12/19 00:13:42;;;;;;;8.13;6.80;;;7.10;99.90;;;;;;5066566;28;20172;-76
2023/12/19 00:16:07;;;;;;;7.27;6.37;;;7.10;99.90;;;;;;5070898;28;20661;-76
2023/12/19 00:18:33;;;;;;;9.40;7.03;;;7.10;99.90;;;;;;5058198;28;20169;-76
2023/12/19 00:21:00;;;;;;;6.60;5.90;;;7.10;99.90;;;;;;5055823;28;20187;-76
2023/12/19 00:23:30;;;;;;;8.18;6.32;;;7.10;99.90;;;;;;5068903;28;20587;-76
2023/12/19 00:25:57;;;;;;;7.55;6.13;;;7.20;99.90;;;;;;5068572;28;20258;-76
2023/12/19 00:28:22;;;;;;;6.32;5.72;;;7.20;99.90;;;;;;5067458;28;20267;-76
2023/12/19 00:30:48;;;;;;;6.03;5.27;;;7.20;99.90;;;;;;5058014;28;20259;-77
2023/12/19 00:33:14;;;;;;;9.53;7.50;;;7.30;99.90;;;;;;5067056;28;20168;-76
2023/12/19 00:35:39;;;;;;;9.23;6.57;;;7.20;99.90;;;;;;5056498;28;20611;-76
2023/12/19 00:38:05;;;;;;;6.10;5.20;;;7.20;99.90;;;;;;5064767;28;20196;-76
2023/12/19 00:40:31;;;;;;;9.00;6.97;;;7.20;99.90;;;;;;5060093;28;20223;-76
2023/12/19 00:42:56;;;;;;;8.40;6.27;;;7.20;99.90;;;;;;5068861;28;20180;-76
2023/12/19 00:45:22;;;;;;;6.43;5.43;;;7.30;99.90;;;;;;5068593;28;20187;-77
2023/12/19 00:47:48;;;;;;;6.63;5.67;;;7.20;99.90;;;;;;5068808;28;20172;-76
2023/12/19 00:50:15;;;;;;;7.10;6.40;;;7.30;99.90;;;;;;5053410;28;20268;-77
2023/12/19 00:52:42;;;;;;;6.60;6.00;;;7.30;99.90;;;;;;5067595;28;20187;-76
2023/12/19 00:55:08;;;;;;;7.30;5.97;;;7.30;99.90;;;;;;5056307;28;20173;-76
2023/12/19 00:57:33;;;;;;;6.57;5.20;;;7.30;99.90;;;;;;5057375;28;20184;-76
2023/12/19 00:59:59;;;;;;;7.20;5.38;;;7.30;99.90;;;;;;5055337;28;20681;-76
2023/12/19 01:02:27;;;;;;;8.87;6.40;;;7.40;99.90;;;;;;5069234;28;20262;-76
2023/12/19 01:04:56;;;;;;;6.18;5.57;;;7.40;99.90;;;;;;5064052;28;20662;-76
2023/12/19 01:07:22;;;;;;;7.55;6.00;;;7.40;99.90;;;;;;5066138;28;20204;-77
2023/12/19 01:09:47;;;;;;;7.18;6.20;;;7.40;99.90;;;;;;5060547;28;20176;-77
2023/12/19 01:12:13;;;;;;;6.70;5.50;;;7.40;99.90;;;;;;5068224;28;20275;-76
2023/12/19 01:14:39;;;;;;;7.18;5.85;;;7.40;99.90;;;;;;5068342;28;20168;-76
2023/12/19 01:17:05;;;;;;;5.90;5.17;;;7.40;99.90;;;;;;5065039;28;20216;-76
2023/12/19 01:19:30;;;;;;;10.00;8.90;;;7.40;99.90;;;;;;5059187;28;20187;-76
2023/12/19 01:21:56;;;;;;;9.30;7.03;;;7.40;99.90;;;;;;5069311;28;20673;-76
2023/12/19 01:24:22;;;;;;;11.70;7.40;;;7.40;99.90;;;;;;5068367;28;20168;-76
2023/12/19 01:26:49;;;;;;;7.57;6.03;;;7.40;99.90;;;;;;5060827;28;20204;-76
2023/12/19 01:29:15;;;;;;;7.60;5.47;;;7.30;99.90;;;;;;5064580;28;20180;-76
2023/12/19 01:31:41;;;;;;;6.78;5.40;;;7.30;99.90;;;;;;5067928;28;20196;-76
2023/12/19 01:34:07;;;;;;;7.13;6.30;;;7.40;99.90;;;;;;5055621;28;20548;-76
2023/12/19 01:36:32;;;;;;;6.87;6.17;;;7.40;99.90;;;;;;5070893;28;20207;-76
2023/12/19 01:38:58;;;;;;;7.80;5.60;;;7.40;99.90;;;;;;5060308;28;20177;-77
2023/12/19 01:41:24;;;;;;;8.20;6.77;;;7.40;99.90;;;;;;5084061;28;20539;-76
2023/12/19 01:43:49;;;;;;;7.57;6.43;;;7.40;99.90;;;;;;5071883;28;20527;-77
2023/12/19 01:46:18;;;;;;;8.00;5.70;;;7.40;99.90;;;;;;5071285;28;20208;-77
2023/12/19 01:48:44;;;;;;;9.02;8.15;;;7.40;99.90;;;;;;5073012;28;20168;-77
2023/12/19 01:51:11;;;;;;;8.95;7.88;;;7.40;99.90;;;;;;5071203;28;20180;-77
2023/12/19 01:53:38;;;;;;;8.45;6.50;;;7.40;99.90;;;;;;5060043;28;20169;-77
2023/12/19 01:56:05;;;;;;;7.78;6.18;;;7.40;99.90;;;;;;5057815;28;20204;-77
2023/12/19 01:58:30;;;;;;;8.50;5.80;;;7.40;99.90;;;;;;5072813;28;20172;-77
2023/12/19 02:00:57;;;;;;;7.50;5.97;;;7.50;99.90;;;;;;5054268;28;20229;-77
2023/12/19 02:03:23;;;;;;;8.02;6.25;;;7.50;99.90;;;;;;5063386;28;20702;-77
2023/12/19 02:05:52;;;;;;;8.57;6.43;;;7.50;99.90;;;;;;5057928;28;20242;-77
2023/12/19 02:08:18;;;;;;;8.68;6.80;;;7.50;99.90;;;;;;5061924;28;20203;-78
2023/12/19 02:10:44;;;;;;;8.00;6.30;;;7.50;99.90;;;;;;5072291;28;20178;-77
2023/12/19 02:13:10;;;;;;;8.23;6.23;;;7.50;99.90;;;;;;5047682;28;20684;-78
2023/12/19 02:15:36;;;;;;;6.68;5.28;;;7.40;99.90;;;;;;5061849;28;20646;-77
2023/12/19 02:18:19;;;;;;;6.95;6.15;;;7.40;99.90;;;;;;5072501;28;20253;-77
2023/12/19 02:20:45;;;;;;;10.32;6.53;;;7.40;99.90;;;;;;5029802;28;20172;-77
2023/12/19 02:23:12;;;;;;;8.80;7.30;;;7.40;99.90;;;;;;5038596;28;20176;-77
2023/12/19 02:25:38;;;;;;;7.53;6.35;;;7.40;99.90;;;;;;5037000;28;20195;-77
2023/12/19 02:28:05;;;;;;;8.55;6.55;;;7.30;99.90;;;;;;5054735;28;20507;-77
2023/12/19 02:30:31;;;;;;;7.45;5.97;;;7.40;99.90;;;;;;5053706;28;20169;-77
2023/12/19 02:32:58;;;;;;;9.47;8.47;;;7.30;99.90;;;;;;5072427;28;20540;-77
2023/12/19 02:35:24;;;;;;;9.52;8.25;;;7.30;99.90;;;;;;5070863;28;20193;-78
2023/12/19 02:37:50;;;;;;;10.25;7.50;;;7.30;99.90;;;;;;5070819;28;20203;-77
2023/12/19 02:40:16;;;;;;;8.53;7.10;;;7.30;99.90;;;;;;5070962;28;20615;-77
2023/12/19 02:42:42;;;;;;;7.13;6.27;;;7.30;99.90;;;;;;5073998;28;20179;-77
2023/12/19 02:45:10;;;;;;;8.15;6.70;;;7.20;99.90;;;;;;5069557;28;20211;-77
2023/12/19 02:47:37;;;;;;;8.35;6.80;;;7.20;99.90;;;;;;5070884;28;20258;-78
2023/12/19 02:50:03;;;;;;;8.98;7.40;;;7.20;99.90;;;;;;5070765;28;20183;-77
2023/12/19 02:52:28;;;;;;;9.65;7.70;;;7.20;99.90;;;;;;5070224;28;20165;-77
2023/12/19 02:54:54;;;;;;;8.10;7.00;;;7.20;99.90;;;;;;5063982;28;20673;-77
2023/12/19 02:57:20;;;;;;;7.73;6.90;;;7.20;99.90;;;;;;5055587;28;20200;-77
2023/12/19 02:59:46;;;;;;;7.43;6.30;;;7.20;99.90;;;;;;5070600;28;20682;-77
2023/12/19 03:02:11;;;;;;;7.40;6.20;;;7.20;99.90;;;;;;5070024;28;20176;-77
2023/12/19 03:04:40;;;;;;;6.83;5.60;;;7.30;99.90;;;;;;5055275;28;20185;-77
2023/12/19 03:07:07;;;;;;;10.00;7.63;;;7.30;99.90;;;;;;5071277;28;20230;-77
2023/12/19 03:09:32;;;;;;;7.10;6.10;;;7.30;99.90;;;;;;5061978;28;20191;-77
2023/12/19 03:12:06;;;;;;;7.30;5.90;;;7.30;99.90;;;;;;5022957;28;20172;-77
2023/12/19 03:14:36;;;;;;;7.47;6.38;;;7.30;99.90;;;;;;5061298;28;20675;-77
2023/12/19 03:17:03;;;;;;;6.63;5.43;;;7.30;99.90;;;;;;5069560;28;20208;-77
2023/12/19 03:19:29;;;;;;;7.43;6.38;;;7.30;99.90;;;;;;5064714;28;20181;-77
2023/12/19 03:21:55;;;;;;;7.28;6.30;;;7.30;99.90;;;;;;5045136;28;20267;-77
2023/12/19 03:24:22;;;;;;;5.97;4.90;;;7.30;99.90;;;;;;5062945;28;20176;-77
2023/12/19 03:26:48;;;;;;;6.70;5.40;;;7.30;99.90;;;;;;5032880;28;20205;-77
2023/12/19 03:29:14;;;;;;;6.00;5.32;;;7.40;99.90;;;;;;5077959;28;20690;-77
2023/12/19 03:31:42;;;;;;;6.40;5.20;;;7.40;99.90;;;;;;5055208;28;20446;-77
2023/12/19 03:34:08;;;;;;;7.18;6.03;;;7.40;99.90;;;;;;5071174;28;20187;-77
2023/12/19 03:36:34;;;;;;;6.70;4.55;;;7.40;99.90;;;;;;5061058;28;20576;-77
2023/12/19 03:38:59;;;;;;;5.33;4.10;;;7.50;99.90;;;;;;5065875;28;20188;-77
2023/12/19 03:41:25;;;;;;;5.20;4.70;;;7.50;99.90;;;;;;5057640;28;20913;-77
2023/12/19 03:43:51;;;;;;;6.67;4.80;;;7.50;99.90;;;;;;5069623;28;20583;-77
2023/12/19 03:46:17;;;;;;;5.10;4.07;;;7.60;99.90;;;;;;5052908;28;20677;-77
2023/12/19 03:48:45;;;;;;;4.67;4.20;;;7.60;99.90;;;;;;5060826;28;20201;-77
2023/12/19 03:51:14;;;;;;;5.32;4.80;;;7.60;99.90;;;;;;5068955;28;20172;-77
2023/12/19 03:53:40;;;;;;;8.00;4.15;;;7.60;99.90;;;;;;5070772;28;20174;-78
2023/12/19 03:56:06;;;;;;;5.37;4.63;;;7.60;99.90;;;;;;5044349;28;20204;-77
2023/12/19 03:58:32;;;;;;;5.15;4.07;;;7.60;99.90;;;;;;5063879;28;20181;-78
2023/12/19 04:01:01;;;;;;;4.90;2.70;;;7.70;99.90;;;;;;5057002;28;20188;-77
2023/12/19 04:03:26;;;;;;;3.58;3.10;;;7.70;99.90;;;;;;5066340;28;20214;-77
2023/12/19 04:05:52;;;;;;;4.00;3.00;;;7.80;99.90;;;;;;5070416;28;20207;-77
2023/12/19 04:08:18;;;;;;;2.67;2.40;;;7.80;99.90;;;;;;5069097;28;20286;-78
2023/12/19 04:10:43;;;;;;;4.23;3.17;;;7.80;99.90;;;;;;5053435;28;20695;-78
2023/12/19 04:13:09;;;;;;;2.90;2.33;;;7.90;99.90;;;;;;5069199;28;20176;-78
2023/12/19 04:15:35;;;;;;;3.63;2.50;;;7.90;99.90;;;;;;5067458;28;20211;-77
2023/12/19 04:18:00;;;;;;;2.83;2.30;;;7.90;99.90;;;;;;5049165;28;20543;-78
2023/12/19 04:20:26;;;;;;;3.93;3.23;;;8.00;99.90;;;;;;5058362;28;20176;-77
2023/12/19 04:22:52;;;;;;;2.73;2.00;;;8.00;99.90;;;;;;5061645;28;20639;-78
2023/12/19 04:25:17;;;;;;;2.60;1.73;;;8.10;99.90;;;;;;5069242;28;20556;-78
2023/12/19 04:27:43;;;;;;;2.53;1.90;;;8.20;99.90;;;;;;5070062;28;20608;-77
2023/12/19 04:30:09;;;;;;;2.43;1.60;;;8.20;99.90;;;;;;5068968;28;20627;-78
2023/12/19 04:32:35;;;;;;;2.85;2.45;;;8.20;99.90;;;;;;5070398;28;20184;-79
2023/12/19 04:35:01;;;;;;;3.00;2.30;;;8.20;99.90;;;;;;5073116;28;20164;-78
2023/12/19 04:37:27;;;;;;;2.90;2.03;;;8.20;99.90;;;;;;5069771;28;20532;-77
2023/12/19 04:39:52;;;;;;;3.30;2.30;;;8.20;99.90;;;;;;5070290;28;20168;-77
2023/12/19 04:42:18;;;;;;;3.07;2.77;;;8.20;99.90;;;;;;5068239;28;20177;-77
2023/12/19 04:44:47;;;;;;;3.90;3.20;;;8.20;99.90;;;;;;5060406;28;20566;-76
2023/12/19 04:47:13;;;;;;;3.13;2.30;;;8.20;99.90;;;;;;5068115;28;20254;-77
2023/12/19 04:49:39;;;;;;;3.97;2.85;;;8.20;99.90;;;;;;5058592;28;20191;-77
2023/12/19 04:52:05;;;;;;;3.92;3.08;;;8.20;99.90;;;;;;5053979;28;20288;-76
2023/12/19 04:54:31;;;;;;;3.20;2.37;;;8.20;99.90;;;;;;5060387;28;20263;-76
2023/12/19 04:57:03;;;;;;;3.22;2.25;;;8.10;99.90;;;;;;5068548;28;20235;-77
2023/12/19 04:59:30;;;;;;;3.08;2.28;;;8.10;99.90;;;;;;5068725;28;20188;-76
2023/12/19 05:01:56;;;;;;;3.95;2.60;;;8.10;99.90;;;;;;5064269;28;20250;-76
2023/12/19 05:04:22;;;;;;;3.40;2.87;;;8.10;99.90;;;;;;5064898;28;20577;-75
2023/12/19 05:06:47;;;;;;;4.30;2.63;;;8.10;99.90;;;;;;5050223;28;20247;-76
2023/12/19 05:09:13;;;;;;;3.90;2.73;;;8.00;99.90;;;;;;5068233;28;20214;-76
2023/12/19 05:11:42;;;;;;;2.97;2.43;;;7.90;99.90;;;;;;5072921;28;20180;-75
2023/12/19 05:14:08;;;;;;;2.60;2.10;;;7.90;99.90;;;;;;5069912;28;20177;-75
2023/12/19 05:16:33;;;;;;;4.47;2.83;;;7.90;99.90;;;;;;5055637;28;20223;-75
2023/12/19 05:18:59;;;;;;;3.30;2.33;;;7.90;99.90;;;;;;5069078;28;20177;-75
2023/12/19 05:21:25;;;;;;;4.40;2.93;;;7.80;99.90;;;;;;5051987;28;20703;-76
2023/12/19 05:23:50;;;;;;;3.47;2.73;;;7.80;99.90;;;;;;5073270;28;20350;-76
2023/12/19 05:26:16;;;;;;;2.33;2.13;;;7.80;99.90;;;;;;5071606;28;20662;-75
2023/12/19 05:28:42;;;;;;;3.93;3.13;;;7.70;99.90;;;;;;5071169;28;20263;-75
2023/12/19 05:31:09;;;;;;;4.00;2.87;;;7.70;99.90;;;;;;5040506;28;20584;-75
2023/12/19 05:33:35;;;;;;;3.33;2.70;;;7.70;99.90;;;;;;5071715;28;20271;-75
2023/12/19 05:36:01;;;;;;;4.23;3.20;;;7.60;99.90;;;;;;5068576;28;20212;-75
2023/12/19 05:38:27;;;;;;;3.55;2.65;;;7.60;99.90;;;;;;5068169;28;20270;-75
2023/12/19 05:40:57;;;;;;;3.55;2.53;;;7.50;99.90;;;;;;5060869;28;20181;-75
2023/12/19 05:43:23;;;;;;;6.82;3.30;;;7.50;99.90;;;;;;5067648;28;20181;-74
2023/12/19 05:45:49;;;;;;;3.00;2.70;;;7.50;99.90;;;;;;5071797;28;20245;-76
2023/12/19 05:48:14;;;;;;;3.97;3.00;;;7.40;99.90;;;;;;5057857;28;20275;-75
2023/12/19 05:50:40;;;;;;;4.27;3.27;;;7.50;99.90;;;;;;5071306;28;20685;-75
2023/12/19 05:53:06;;;;;;;2.60;2.23;;;7.40;99.90;;;;;;5071816;28;20594;-75
2023/12/19 05:55:32;;;;;;;3.27;2.83;;;7.40;99.90;;;;;;5072629;28;20199;-75
2023/12/19 05:57:57;;;;;;;3.40;2.93;;;7.40;99.90;;;;;;5073243;28;20176;-76
2023/12/19 06:00:23;;;;;;;3.47;2.73;;;7.50;99.90;;;;;;5058967;28;20196;-75
2023/12/19 06:02:50;;;;;;;3.13;2.03;;;7.50;99.90;;;;;;5065012;28;20180;-76
2023/12/19 06:05:17;;;;;;;2.75;2.25;;;7.50;99.90;;;;;;5058239;28;20185;-77
2023/12/19 06:07:42;;;;;;;6.72;3.78;;;7.60;99.90;;;;;;5068159;28;20196;-77
2023/12/19 06:10:13;;;;;;;5.10;3.43;;;7.60;99.90;;;;;;5063531;28;20532;-75
2023/12/19 06:12:40;;;;;;;4.15;2.75;;;7.60;99.90;;;;;;5070956;28;20168;-76
2023/12/19 06:15:12;;;;;;;4.22;3.17;;;7.60;99.90;;;;;;5066115;28;20272;-75
2023/12/19 06:17:43;;;;;;;3.88;3.05;;;7.60;99.90;;;;;;5061033;28;20193;-75
2023/12/19 06:20:12;;;;;;;5.18;3.10;;;7.50;99.90;;;;;;5064181;28;20172;-75
2023/12/19 06:22:39;;;;;;;4.10;3.67;;;7.60;99.90;;;;;;5062398;28;20184;-77
2023/12/19 06:25:06;;;;;;;5.85;3.60;;;7.60;99.90;;;;;;5072069;28;20176;-77
2023/12/19 06:27:35;;;;;;;4.43;3.72;;;7.50;99.90;;;;;;5071692;28;20222;-77
2023/12/19 06:30:05;;;;;;;3.53;2.70;;;7.50;99.90;;;;;;5062608;28;20258;-77
2023/12/19 06:32:31;;;;;;;4.45;2.63;;;7.60;99.90;;;;;;5053656;28;20230;-77
2023/12/19 06:34:57;;;;;;;4.50;3.00;;;7.60;99.90;;;;;;5059548;28;20169;-78
2023/12/19 06:37:23;;;;;;;2.85;2.17;;;7.60;99.90;;;;;;5059168;28;20188;-77
2023/12/19 06:39:48;;;;;;;3.40;2.13;;;7.60;99.90;;;;;;5070513;28;20172;-77
2023/12/19 06:42:14;;;;;;;4.90;3.60;;;7.70;99.90;;;;;;5070491;28;20176;-77
2023/12/19 06:44:40;;;;;;;4.80;3.03;;;7.70;99.90;;;;;;5055538;28;20173;-77
2023/12/19 06:47:06;;;;;;;4.23;3.13;;;7.70;99.90;;;;;;5062295;28;20208;-77
2023/12/19 06:49:31;;;;;;;6.10;3.10;;;7.70;99.90;;;;;;5063529;28;20665;-77
2023/12/19 06:51:57;;;;;;;5.10;3.90;;;7.70;99.90;;;;;;5063086;28;20225;-77
2023/12/19 06:54:23;;;;;;;3.43;2.83;;;7.70;99.90;;;;;;5062348;28;20179;-77
2023/12/19 06:56:48;;;;;;;4.27;2.47;;;7.70;99.90;;;;;;5066081;28;20203;-77
2023/12/19 06:59:14;;;;;;;4.10;2.00;;;7.80;99.90;;;;;;5070638;28;20176;-76
2023/12/19 07:01:40;;;;;;;2.80;1.97;;;7.80;99.90;;;;;;5066015;28;20587;-77
2023/12/19 07:04:06;;;;;;;2.60;1.80;;;7.80;99.90;;;;;;5075506;28;20526;-77
2023/12/19 07:06:32;;;;;;;2.57;1.70;;;7.90;99.90;;;;;;5067204;28;20200;-77
2023/12/19 07:08:57;;;;;;;4.73;2.30;;;7.90;99.90;;;;;;5050970;28;20177;-77
2023/12/19 07:11:24;;;;;;;3.40;3.10;;;7.90;99.90;;;;;;5050856;28;20580;-78
2023/12/19 07:13:50;;;;;;;4.25;2.80;;;7.90;99.90;;;;;;5069428;28;20622;-76
2023/12/19 07:16:18;;;;;;;3.50;2.58;;;7.90;99.90;;;;;;5073138;28;20212;-76
2023/12/19 07:18:45;;;;;;;3.15;2.63;;;7.90;99.90;;;;;;5071435;28;20173;-76
2023/12/19 07:21:24;;;;;;;3.60;2.90;;;7.90;99.90;;;;;;5057304;28;20188;-76
2023/12/19 07:23:51;;;;;;;4.45;3.00;;;7.90;99.90;;;;;;5066709;28;20219;-76
2023/12/19 07:26:21;;;;;;;3.42;2.50;;;7.90;99.90;;;;;;5064454;28;20203;-77
2023/12/19 07:28:48;;;;;;;3.17;2.10;;;7.90;99.90;;;;;;5051641;28;20181;-77
2023/12/19 07:31:25;;;;;;;4.15;2.80;;;8.00;99.90;;;;;;5056984;28;20165;-77
2023/12/19 07:33:58;;;;;;;3.35;2.25;;;8.00;99.90;;;;;;5041699;28;20180;-77
2023/12/19 07:36:27;;;;;;;3.80;3.08;;;8.00;99.90;;;;;;5076376;28;20239;-77
2023/12/19 07:38:53;;;;;;;2.83;1.92;;;8.00;99.90;;;;;;5051841;28;20173;-77
2023/12/19 07:41:20;;;;;;;4.93;2.13;;;8.10;99.90;;;;;;5068289;28;20199;-76
2023/12/19 07:43:46;;;;;;;2.58;1.95;;;8.10;99.90;;;;;;5069861;28;21028;-77
2023/12/19 07:46:13;;;;;;;3.83;3.22;;;8.10;99.90;;;;;;5069490;28;20203;-77
2023/12/19 07:48:39;;;;;;;3.67;3.00;;;8.10;99.90;;;;;;5060882;28;20208;-77
2023/12/19 07:51:06;;;;;;;3.42;2.30;;;8.00;99.90;;;;;;5061077;28;20187;-77
2023/12/19 07:53:32;;;;;;;7.78;4.20;;;8.00;99.90;;;;;;5069555;28;20174;-77
2023/12/19 07:56:00;;;;;;;5.13;3.53;;;8.00;99.90;;;;;;5065844;28;20283;-77
2023/12/19 07:58:26;;;;;;;3.90;2.63;;;8.10;99.90;;;;;;5066027;28;20651;-77
2023/12/19 08:00:52;;;;;;;4.33;3.07;;;8.10;99.90;;;;;;5052269;28;20200;-76
2023/12/19 08:03:18;;;;;;;3.58;1.92;;;8.10;99.90;;;;;;5069577;28;20215;-77
2023/12/19 08:05:52;;;;;;;5.23;2.27;;;8.10;99.90;;;;;;5069354;28;20702;-78
2023/12/19 08:08:17;;;;;;;3.95;2.63;;;8.10;99.90;;;;;;5061244;28;20665;-77
2023/12/19 08:10:44;;;;;;;2.10;1.60;;;8.10;99.90;;;;;;5067919;28;20297;-81
2023/12/19 08:13:10;;;;;;;2.75;2.13;;;8.10;99.90;;;;;;5055315;28;20198;-81
2023/12/19 08:15:36;;;;;;;3.05;1.90;;;8.10;99.90;;;;;;5059989;28;20244;-81
2023/12/19 08:18:02;;;;;;;2.97;1.70;;;8.20;99.90;;;;;;5089381;28;20175;-82
2023/12/19 08:20:28;;;;;;;2.17;1.45;;;8.30;99.90;;;;;;5060636;28;20187;-79
2023/12/19 08:22:54;;;;;;;4.27;1.53;;;8.30;99.90;;;;;;5058706;28;20191;-79
2023/12/19 08:25:20;;;;;;;3.77;2.10;;;8.40;99.90;;;;;;5063051;28;20173;-79
2023/12/19 08:27:46;;;;;;;4.68;1.52;;;8.40;99.90;;;;;;5070335;28;20214;-82
2023/12/19 08:30:12;;;;;;;1.90;1.30;;;8.50;99.90;;;;;;5066098;28;20630;-79
2023/12/19 08:32:39;;;;;;;2.95;1.20;;;8.60;99.90;;;;;;5065533;28;20601;-80
2023/12/19 08:35:06;;;;;;;1.88;1.27;;;8.60;99.90;;;;;;5057338;28;20169;-78
2023/12/19 08:37:32;;;;;;;1.67;1.13;;;8.70;99.90;;;;;;5065604;28;20194;-79
2023/12/19 08:40:02;;;;;;;1.60;1.00;;;8.80;99.90;;;;;;5060832;28;20180;-79
2023/12/19 08:42:28;;;;;;;2.88;1.63;;;8.80;99.90;;;;;;5055317;28;20613;-79
2023/12/19 08:44:55;;;;;;;2.43;1.37;;;8.90;99.90;;;;;;5063312;28;20299;-80
2023/12/19 08:47:22;;;;;;;2.47;1.38;;;9.00;99.90;;;;;;5072592;28;20814;-79
2023/12/19 08:49:48;;;;;;;1.70;1.10;;;9.00;99.90;;;;;;5074293;28;20173;-80
2023/12/19 08:52:14;;;;;;;2.03;1.10;;;9.10;99.90;;;;;;5072743;28;20172;-78
2023/12/19 08:54:42;;;;;;;1.70;1.10;;;9.20;99.90;;;;;;5069319;28;20260;-78
2023/12/19 08:57:08;;;;;;;1.63;1.20;;;9.20;99.90;;;;;;5062455;28;20227;-79
2023/12/19 08:59:33;;;;;;;2.30;1.13;;;9.30;99.90;;;;;;5080859;28;20223;-79
2023/12/19 09:01:59;;;;;;;2.53;1.10;;;9.30;99.90;;;;;;5071972;28;20237;-78
2023/12/19 09:04:25;;;;;;;2.33;1.43;;;9.30;99.90;;;;;;5072685;28;20176;-77
2023/12/19 09:06:51;;;;;;;1.70;1.20;;;9.30;99.90;;;;;;5071122;28;20609;-79
2023/12/19 09:09:16;;;;;;;2.37;1.40;;;9.30;99.90;;;;;;5067158;28;20172;-77
2023/12/19 09:11:42;;;;;;;1.70;0.97;;;9.30;99.90;;;;;;5054842;28;21152;-77
2023/12/19 09:14:11;;;;;;;3.67;1.10;;;9.30;99.90;;;;;;5064675;28;20594;-78
2023/12/19 09:16:37;;;;;;;6.22;1.40;;;9.30;99.90;;;;;;5071744;28;20223;-77
2023/12/19 09:19:03;;;;;;;2.30;1.35;;;9.30;99.90;;;;;;5061102;28;20180;-81
2023/12/19 09:21:29;;;;;;;2.83;1.70;;;9.30;99.90;;;;;;5060095;28;20277;-79
2023/12/19 09:23:55;;;;;;;2.73;1.70;;;9.30;99.90;;;;;;5070890;28;20597;-80
2023/12/19 09:26:21;;;;;;;3.70;1.70;;;9.30;99.90;;;;;;5072195;28;20653;-80
2023/12/19 09:28:46;;;;;;;4.70;1.20;;;9.30;99.90;;;;;;5073810;28;20177;-79
2023/12/19 09:31:12;;;;;;;2.50;1.70;;;9.40;99.90;;;;;;5071765;28;20673;-78
2023/12/19 09:33:39;;;;;;;2.60;1.20;;;9.40;99.90;;;;;;5068195;28;20177;-78
2023/12/19 09:36:10;;;;;;;1.90;1.10;;;9.50;99.90;;;;;;5069806;28;20201;-78
2023/12/19 09:38:36;;;;;;;4.20;1.70;;;9.50;99.90;;;;;;5059867;28;20742;-81
2023/12/19 09:41:03;;;;;;;2.90;1.33;;;9.50;99.90;;;;;;5071504;28;20172;-80
2023/12/19 09:43:33;;;;;;;1.90;1.08;;;9.60;99.90;;;;;;5065817;28;20235;-83
2023/12/19 09:46:02;;;;;;;2.50;1.10;;;9.60;99.90;;;;;;5068136;28;20204;-81
2023/12/19 09:48:33;;;;;;;2.70;1.20;;;9.70;99.90;;;;;;5067498;28;20699;-80
2023/12/19 09:51:03;;;;;;;1.75;1.27;;;9.70;99.90;;;;;;5071108;28;20574;-79
2023/12/19 09:53:34;;;;;;;2.10;1.25;;;9.70;99.90;;;;;;5071309;28;20251;-81
2023/12/19 09:56:01;;;;;;;4.65;1.10;;;9.70;99.90;;;;;;5063594;28;20295;-79
2023/12/19 09:58:31;;;;;;;3.85;1.15;;;9.70;99.90;;;;;;5072217;28;20188;-79
2023/12/19 10:00:58;;;;;;;5.07;1.10;;;9.80;99.90;;;;;;5070864;28;20541;-80
2023/12/19 10:03:27;;;;;;;4.20;1.20;;;9.80;99.90;;;;;;5071842;28;20173;-80
2023/12/19 10:05:53;;;;;;;4.03;1.30;;;9.80;99.90;;;;;;5070452;28;20230;-80
2023/12/19 10:08:20;;;;;;;1.92;1.00;;;9.90;99.90;;;;;;5063553;28;20521;-79
2023/12/19 10:10:54;;;;;;;2.58;0.90;;;9.90;99.90;;;;;;5071402;28;20187;-79
2023/12/19 10:13:35;;;;;;;3.85;1.17;;;9.90;99.90;;;;;;5072755;28;20159;-78
2023/12/19 10:16:09;;;;;;;2.85;1.00;;;9.90;99.90;;;;;;5069716;28;20212;-77
2023/12/19 10:18:39;;;;;;;2.25;1.67;;;9.90;99.90;;;;;;5059507;28;20219;-78
2023/12/19 10:21:11;;;;;;;3.67;1.30;;;10.00;99.90;;;;;;5059005;28;20188;-78
2023/12/19 10:23:37;;;;;;;2.35;1.08;;;10.00;99.90;;;;;;5058424;28;20176;-78
2023/12/19 10:26:04;;;;;;;3.65;1.02;;;10.00;99.90;;;;;;5064097;28;20245;-78
2023/12/19 10:28:30;;;;;;;2.20;1.20;;;10.00;99.90;;;;;;5062986;28;20220;-78
2023/12/19 10:31:15;;;;;;;3.35;1.00;;;10.00;99.90;;;;;;5062238;28;20183;-78
2023/12/19 10:33:51;;;;;;;3.35;1.42;;;10.10;99.90;;;;;;5062764;28;20179;-78
2023/12/19 10:36:26;;;;;;;2.80;1.25;;;10.10;99.90;;;;;;5056137;28;20215;-76
2023/12/19 10:39:11;;;;;;;2.55;1.25;;;10.10;99.90;;;;;;5034489;28;20177;-76
2023/12/19 10:41:38;;;;;;;2.80;0.90;;;10.10;99.90;;;;;;5050439;28;20280;-77
2023/12/19 10:44:04;;;;;;;5.53;1.13;;;10.20;99.90;;;;;;5051918;28;20185;-76
2023/12/19 10:46:32;;;;;;;2.25;0.90;;;10.20;99.90;;;;;;5044831;28;20204;-77
2023/12/19 10:49:02;;;;;;;4.38;1.20;;;10.30;99.90;;;;;;5068927;28;20176;-77
2023/12/19 10:51:32;;;;;;;3.45;1.10;;;10.40;99.90;;;;;;5070253;28;20176;-77
2023/12/19 10:54:11;;;;;;;3.35;1.00;;;10.40;99.90;;;;;;5074285;28;20175;-76
2023/12/19 10:57:07;;;;;;;3.88;1.05;;;10.50;99.90;;;;;;5062276;28;20275;-77
2023/12/19 11:00:09;;;;;;;4.97;1.00;;;10.50;99.90;;;;;;5070487;28;20179;-76
2023/12/19 11:02:46;;;;;;;3.22;1.00;;;10.60;99.90;;;;;;5071456;28;20184;-77
2023/12/19 11:05:31;;;;;;;4.28;1.23;;;10.60;99.90;;;;;;5069451;28;20205;-76
2023/12/19 11:08:02;;;;;;;1.30;0.70;;;10.60;99.90;;;;;;5053572;28;20200;-76
2023/12/19 11:10:30;;;;;;;6.40;1.48;;;10.70;99.90;;;;;;5071001;28;20176;-76
2023/12/19 11:12:56;;;;;;;7.60;1.13;;;10.70;99.90;;;;;;5071237;28;20191;-75
2023/12/19 11:15:24;;;;;;;6.80;1.10;;;10.70;99.90;;;;;;5069649;28;20181;-76
2023/12/19 11:17:58;;;;;;;4.82;0.98;;;10.70;99.90;;;;;;5070105;28;20593;-76
2023/12/19 11:20:34;;;;;;;2.92;0.90;;;10.80;99.90;;;;;;5069354;28;20172;-77
2023/12/19 11:23:02;;;;;;;1.95;0.80;;;10.80;99.90;;;;;;5070217;28;20694;-76
2023/12/19 11:25:33;;;;;;;1.80;0.80;;;10.80;99.90;;;;;;5069826;28;20746;-77
2023/12/19 11:28:03;;;;;;;3.47;0.85;;;10.90;99.90;;;;;;5068565;28;20589;-77
2023/12/19 11:30:40;;;;;;;1.80;0.77;;;10.90;99.90;;;;;;5066582;28;20184;-77
2023/12/19 11:33:13;;;;;;;5.90;1.00;;;10.90;99.90;;;;;;5059545;28;20650;-77
2023/12/19 11:35:40;;;;;;;1.90;0.82;;;10.90;99.90;;;;;;5051112;28;20201;-77
2023/12/19 11:38:15;;;;;;;3.45;0.90;;;10.90;99.90;;;;;;5053214;28;20184;-76
2023/12/19 11:40:48;;;;;;;3.17;0.98;;;10.90;99.90;;;;;;5069511;28;20214;-76
2023/12/19 11:43:49;;;;;;;2.15;0.90;;;10.90;99.90;;;;;;5069705;28;20263;-76
2023/12/19 11:46:16;;;;;;;2.50;0.80;;;10.80;99.90;;;;;;5068434;28;20622;-77
2023/12/19 11:48:49;;;;;;;4.45;1.20;;;10.70;99.90;;;;;;5069895;28;20187;-76
2023/12/19 11:51:44;;;;;;;1.98;1.08;;;10.70;99.90;;;;;;5068905;28;20522;-76
2023/12/19 11:54:12;;;;;;;2.83;1.10;;;10.70;99.90;;;;;;5069483;28;20172;-77
2023/12/19 11:56:42;;;;;;;2.05;0.90;;;10.70;99.90;;;;;;5070403;28;20218;-76
2023/12/19 11:59:08;;;;;;;2.60;1.30;;;10.60;99.90;;;;;;5067420;28;20219;-76
2023/12/19 12:01:41;;;;;;;2.08;0.80;;;10.60;99.90;;;;;;5064453;28;20176;-76
2023/12/19 12:04:10;;;;;;;5.20;1.38;;;10.60;99.90;;;;;;5069354;28;20180;-76
2023/12/19 12:06:41;;;;;;;2.15;0.82;;;10.50;99.90;;;;;;5070782;28;20608;-76
2023/12/19 12:09:07;;;;;;;3.75;0.77;;;10.50;99.90;;;;;;5063803;28;20234;-77
2023/12/19 12:11:46;;;;;;;4.30;1.10;;;10.50;99.90;;;;;;5048646;28;20173;-76
2023/12/19 12:14:11;;;;;;;3.35;1.38;;;10.50;99.90;;;;;;5082172;28;20267;-77
2023/12/19 12:16:38;;;;;;;1.60;0.90;;;10.50;99.90;;;;;;5049665;28;20679;-77
2023/12/19 12:19:15;;;;;;;3.50;1.05;;;10.50;99.90;;;;;;5049644;28;21167;-77
2023/12/19 12:21:51;;;;;;;5.53;1.20;;;10.50;99.90;;;;;;5050095;28;20185;-76
2023/12/19 12:24:21;;;;;;;3.40;0.88;;;10.50;99.90;;;;;;5057642;28;20602;-77
2023/12/19 12:26:48;;;;;;;2.72;1.30;;;10.50;99.90;;;;;;5057391;28;20719;-77
2023/12/19 12:29:16;;;;;;;2.83;1.08;;;10.50;99.90;;;;;;5061251;28;20172;-78
2023/12/19 12:31:42;;;;;;;3.90;0.95;;;10.50;99.90;;;;;;5062332;28;20265;-78
2023/12/19 12:34:08;;;;;;;3.70;1.20;;;10.40;99.90;;;;;;5058964;28;20260;-78
2023/12/19 12:36:34;;;;;;;1.75;1.10;;;10.50;99.90;;;;;;5037767;28;20215;-78
2023/12/19 12:39:00;;;;;;;3.47;1.00;;;10.50;99.90;;;;;;5069381;28;20172;-76
2023/12/19 12:41:27;;;;;;;3.97;1.10;;;10.50;99.90;;;;;;5065429;28;20173;-76
2023/12/19 12:43:55;;;;;;;2.00;0.82;;;10.60;99.90;;;;;;5059287;28;20181;-77
2023/12/19 12:46:24;;;;;;;2.22;0.93;;;10.60;99.90;;;;;;5058825;28;20287;-77
2023/12/19 12:48:53;;;;;;;4.25;0.88;;;10.70;99.90;;;;;;5054891;28;20543;-77
2023/12/19 12:51:22;;;;;;;4.32;1.02;;;10.70;99.90;;;;;;5051832;28;20187;-77
2023/12/19 12:53:56;;;;;;;4.03;1.20;;;10.60;99.90;;;;;;5065864;28;20179;-77
2023/12/19 12:56:31;;;;;;;3.30;1.60;;;10.60;99.90;;;;;;5058778;28;20189;-79
2023/12/19 12:59:08;;;;;;;3.80;1.60;;;10.60;99.90;;;;;;5048597;28;20669;-79